Time;durP1;ratioP1;P1;durP2;ratioP2;P2;SDS_P1;SDS_P2;PMS_P1;PMS_P2;Temp;Humidity;BMP_temperature;BMP_pressure;BME280_temperature;BME280_humidity;BME280_pressure;Samples;Min_cycle;Max_cycle;Signal;HPM_P1;HPM_P2
2022/10/20 00:00:56;;;;;;;12.45;4.60;;;;;;;-148.88;98.94;76963.63;4973535;28;20089;-78
2022/10/20 00:03:22;;;;;;;13.43;4.75;;;;;;;-148.88;98.55;76959.56;4974644;28;20490;-78
2022/10/20 00:05:48;;;;;;;7.05;4.35;;;;;;;-148.88;98.82;76959.56;4975438;28;20053;-78
2022/10/20 00:08:13;;;;;;;9.50;4.35;;;;;;;-148.88;98.60;76959.56;4978377;28;20062;-78
2022/10/20 00:10:38;;;;;;;7.25;4.45;;;;;;;-148.88;98.79;76955.50;4978050;28;20034;-78
2022/10/20 00:13:04;;;;;;;8.10;4.75;;;;;;;-148.88;98.74;76955.50;4979172;28;20034;-78
2022/10/20 00:15:29;;;;;;;8.82;4.72;;;;;;;-148.88;98.69;76955.50;4978253;28;20561;-78
2022/10/20 00:17:54;;;;;;;9.15;5.03;;;;;;;-148.88;98.26;76959.56;4979425;28;20030;-78
2022/10/20 00:20:20;;;;;;;10.98;4.78;;;;;;;-148.88;98.46;76959.56;4979692;28;20027;-78
2022/10/20 00:22:45;;;;;;;9.32;5.45;;;;;;;-148.88;98.45;76959.56;4978594;28;20034;-78
2022/10/20 00:25:10;;;;;;;9.27;4.85;;;;;;;-148.88;98.13;76955.50;4977046;28;20022;-77
2022/10/20 00:27:36;;;;;;;8.18;4.55;;;;;;;-148.88;98.51;76947.38;4977548;28;20023;-77
2022/10/20 00:30:02;;;;;;;9.75;5.15;;;;;;;-148.88;98.46;76943.31;4979458;28;20034;-78
2022/10/20 00:32:29;;;;;;;10.10;5.45;;;;;;;-148.88;98.19;76947.38;4979359;28;20477;-77
2022/10/20 00:34:54;;;;;;;9.38;4.97;;;;;;;-148.88;98.40;76941.28;4977568;28;20493;-76
2022/10/20 00:37:19;;;;;;;9.98;5.47;;;;;;;-148.88;98.51;76939.25;4978770;28;20092;-77
2022/10/20 00:39:45;;;;;;;9.70;5.05;;;;;;;-148.88;98.21;76947.38;4977567;28;20498;-78
2022/10/20 00:42:15;;;;;;;9.63;5.55;;;;;;;-148.88;98.29;76947.38;4977726;28;20077;-78
2022/10/20 00:44:49;;;;;;;8.88;5.95;;;;;;;-148.88;98.33;76947.38;4978135;28;20022;-77
2022/10/20 00:47:39;;;;;;;10.65;5.93;;;;;;;-148.88;98.43;76951.44;4978700;28;20421;-78
2022/10/20 00:50:17;;;;;;;12.10;6.45;;;;;;;-148.88;98.32;76951.44;4977641;28;20023;-76
2022/10/20 00:52:45;;;;;;;11.57;6.22;;;;;;;-148.88;98.63;76937.22;4977966;28;20405;-78
2022/10/20 00:55:13;;;;;;;13.35;7.15;;;;;;;-148.88;98.30;76933.16;4979480;28;20466;-78
2022/10/20 00:57:40;;;;;;;13.30;6.55;;;;;;;-148.88;98.76;76931.13;4978991;28;20078;-78
2022/10/20 01:00:07;;;;;;;10.27;6.47;;;;;;;-148.88;98.84;76935.19;4977134;28;20034;-78
2022/10/20 01:02:33;;;;;;;13.57;6.57;;;;;;;-148.88;98.21;76923.00;4977646;28;20093;-78
2022/10/20 01:04:59;;;;;;;11.05;6.88;;;;;;;-148.88;98.26;76918.94;4978064;28;20094;-79
2022/10/20 01:07:25;;;;;;;13.15;7.68;;;;;;;-148.88;98.37;76925.03;4979249;28;20058;-76
2022/10/20 01:09:50;;;;;;;13.98;7.68;;;;;;;-148.88;98.24;76927.06;4977238;28;20030;-78
2022/10/20 01:12:34;;;;;;;12.82;7.32;;;;;;;-148.88;98.41;76927.06;4976902;28;20101;-78
2022/10/20 01:15:30;;;;;;;12.30;7.55;;;;;;;-148.88;98.25;76918.94;4976995;28;20057;-77
2022/10/20 01:17:58;;;;;;;14.25;7.40;;;;;;;-148.88;98.82;76918.94;4977221;28;20038;-78
2022/10/20 01:21:07;;;;;;;13.40;7.45;;;;;;;-148.88;98.31;76912.84;4978104;28;20061;-78
2022/10/20 01:23:47;;;;;;;13.23;7.68;;;;;;;-148.88;98.24;76906.75;4976831;28;20113;-78
2022/10/20 01:26:40;;;;;;;13.10;7.75;;;;;;;-148.88;98.17;76910.81;4978718;28;20050;-78
2022/10/20 01:29:35;;;;;;;14.27;7.30;;;;;;;-148.88;98.41;76908.78;4978371;28;20109;-76
2022/10/20 01:32:21;;;;;;;13.68;7.35;;;;;;;-148.88;98.33;76912.84;4977265;28;20027;-78
2022/10/20 01:35:06;;;;;;;14.75;8.07;;;;;;;-148.88;98.55;76902.69;4976382;28;20023;-78
2022/10/20 01:37:56;;;;;;;13.95;7.68;;;;;;;-148.88;98.65;76902.69;4977705;28;20053;-78
2022/10/20 01:40:30;;;;;;;13.90;7.93;;;;;;;-148.88;98.32;76902.69;4975902;28;20046;-77
2022/10/20 01:43:00;;;;;;;18.15;7.85;;;;;;;-148.88;98.17;76888.47;4977825;28;20023;-77
2022/10/20 01:45:28;;;;;;;12.30;6.82;;;;;;;-148.88;98.50;76890.50;4977668;28;20500;-76
2022/10/20 01:47:57;;;;;;;15.07;7.85;;;;;;;-148.88;98.36;76880.31;4977643;28;20545;-77
2022/10/20 01:50:23;;;;;;;16.33;7.82;;;;;;;-148.88;98.36;76878.28;4978974;28;20037;-78
2022/10/20 01:52:49;;;;;;;13.73;7.72;;;;;;;-148.88;98.30;76874.22;4981854;28;20077;-78
2022/10/20 01:55:18;;;;;;;13.77;8.40;;;;;;;-148.88;98.00;76870.16;4977784;28;20109;-77
2022/10/20 01:57:58;;;;;;;15.68;7.55;;;;;;;-148.88;98.08;76870.16;4976629;28;20054;-78
2022/10/20 02:00:24;;;;;;;15.50;7.90;;;;;;;-148.88;98.35;76874.22;4977848;28;20050;-77
2022/10/20 02:02:52;;;;;;;12.43;8.45;;;;;;;-148.88;98.41;76862.03;4983324;28;20158;-79
2022/10/20 02:05:25;;;;;;;13.77;7.57;;;;;;;-148.88;98.12;76864.06;4986353;28;20089;-79
2022/10/20 02:08:08;;;;;;;14.80;8.77;;;;;;;-148.88;97.99;76866.09;4983492;28;20034;-79
2022/10/20 02:10:51;;;;;;;13.02;7.57;;;;;;;-148.88;98.23;76866.09;4982526;28;20290;-79
2022/10/20 02:13:19;;;;;;;13.15;8.32;;;;;;;-148.88;98.21;76864.06;4980629;28;20047;-78
2022/10/20 02:15:51;;;;;;;15.57;8.10;;;;;;;-148.88;98.23;76862.03;4985064;28;20027;-78
2022/10/20 02:18:21;;;;;;;13.57;7.82;;;;;;;-148.88;98.14;76857.97;4981214;28;20034;-78
2022/10/20 02:20:51;;;;;;;14.70;8.18;;;;;;;-148.88;98.44;76860.00;4981489;28;20106;-78
2022/10/20 02:23:16;;;;;;;13.45;8.18;;;;;;;-148.88;98.22;76853.91;4979167;28;20118;-78
2022/10/20 02:25:42;;;;;;;19.05;8.27;;;;;;;-148.88;98.26;76857.97;4977819;28;20031;-78
2022/10/20 02:28:11;;;;;;;16.05;7.95;;;;;;;-148.88;98.37;76851.88;4976090;28;20432;-78
2022/10/20 02:30:37;;;;;;;13.35;7.65;;;;;;;-148.88;98.05;76851.88;4975753;28;20061;-78
2022/10/20 02:33:04;;;;;;;13.93;8.88;;;;;;;-148.88;98.26;76857.97;4974812;28;20033;-79
2022/10/20 02:35:31;;;;;;;16.98;8.77;;;;;;;-148.88;98.26;76853.91;4974785;28;20110;-78
2022/10/20 02:37:57;;;;;;;20.27;8.18;;;;;;;-148.88;98.21;76862.03;4975929;28;20030;-78
2022/10/20 02:40:23;;;;;;;14.30;8.57;;;;;;;-148.88;98.72;76857.97;4974389;28;20117;-78
2022/10/20 02:42:48;;;;;;;13.60;7.88;;;;;;;-148.88;98.21;76853.91;4977013;28;20054;-79
2022/10/20 02:45:14;;;;;;;15.05;7.60;;;;;;;-148.88;98.62;76849.84;4976457;28;20533;-79
2022/10/20 02:47:39;;;;;;;12.68;7.88;;;;;;;-148.88;98.53;76849.84;4976234;28;20022;-78
2022/10/20 02:50:06;;;;;;;13.38;7.78;;;;;;;-148.88;98.58;76847.81;4974755;28;20397;-78
2022/10/20 02:52:31;;;;;;;11.95;7.82;;;;;;;-148.88;98.52;76849.84;4974952;28;20031;-78
2022/10/20 02:54:57;;;;;;;16.65;7.85;;;;;;;-148.88;98.38;76847.81;4976316;28;20023;-78
2022/10/20 02:57:22;;;;;;;12.55;7.68;;;;;;;-148.88;98.52;76862.03;4976847;28;20035;-78
2022/10/20 02:59:47;;;;;;;19.15;8.02;;;;;;;-148.88;98.38;76849.84;4976196;28;20054;-78
2022/10/20 03:02:13;;;;;;;11.70;7.85;;;;;;;-148.88;98.38;76849.84;4974399;28;20500;-78
2022/10/20 03:04:38;;;;;;;17.58;8.05;;;;;;;-148.88;98.60;76847.81;4974235;28;20089;-77
2022/10/20 03:07:03;;;;;;;14.82;8.00;;;;;;;-148.88;98.54;76845.78;4974336;28;20026;-78
2022/10/20 03:09:29;;;;;;;12.35;7.57;;;;;;;-148.88;98.48;76855.94;4974131;28;20061;-78
2022/10/20 03:11:54;;;;;;;15.68;7.95;;;;;;;-148.88;98.93;76849.84;4974413;28;20027;-78
2022/10/20 03:14:19;;;;;;;14.40;7.03;;;;;;;-148.88;98.82;76849.84;4974601;28;20093;-78
2022/10/20 03:16:44;;;;;;;12.60;7.97;;;;;;;-148.88;98.94;76837.66;4972851;28;20035;-78
2022/10/20 03:19:12;;;;;;;12.80;7.80;;;;;;;-148.88;99.05;76833.59;4974197;28;20034;-78
2022/10/20 03:21:37;;;;;;;10.25;6.55;;;;;;;-148.88;98.82;76837.66;4988976;28;20061;-78
2022/10/20 03:24:03;;;;;;;15.32;7.22;;;;;;;-148.88;98.54;76837.66;4973901;28;20022;-77
2022/10/20 03:26:28;;;;;;;14.98;7.18;;;;;;;-148.88;98.86;76831.56;4974091;28;20125;-77
2022/10/20 03:28:54;;;;;;;13.95;6.95;;;;;;;-148.88;98.94;76821.41;4973844;28;20043;-77
2022/10/20 03:31:19;;;;;;;18.35;8.07;;;;;;;-148.88;98.92;76817.34;4973965;28;20082;-78
2022/10/20 03:33:44;;;;;;;14.65;7.60;;;;;;;-148.88;99.05;76813.28;4974164;28;20110;-77
2022/10/20 03:36:10;;;;;;;13.10;7.45;;;;;;;-148.88;99.46;76803.13;4974378;28;20041;-77
2022/10/20 03:38:35;;;;;;;14.70;7.70;;;;;;;-148.88;99.87;76797.03;4972886;28;20034;-78
2022/10/20 03:41:01;;;;;;;13.95;7.68;;;;;;;-148.88;99.58;76790.94;4975753;28;20023;-78
2022/10/20 03:43:26;;;;;;;16.23;7.78;;;;;;;-148.88;99.51;76788.91;4977642;28;20027;-77
2022/10/20 03:46:04;;;;;;;13.75;7.35;;;;;;;-148.88;99.67;76792.97;4977666;28;20031;-77
2022/10/20 03:48:30;;;;;;;13.45;7.07;;;;;;;-148.88;99.44;76801.09;4977454;28;20023;-77
2022/10/20 03:50:55;;;;;;;23.20;6.85;;;;;;;-148.88;99.55;76795.00;4976879;28;20074;-77
2022/10/20 03:53:20;;;;;;;14.80;8.10;;;;;;;-148.88;99.21;76801.09;4977085;28;20477;-77
2022/10/20 03:55:46;;;;;;;13.10;6.82;;;;;;;-148.88;99.29;76795.00;4977187;28;20031;-77
2022/10/20 03:58:11;;;;;;;14.15;6.60;;;;;;;-148.88;99.53;76792.97;4976893;28;20481;-77
2022/10/20 04:00:36;;;;;;;14.35;6.70;;;;;;;-148.88;99.61;76795.00;4976791;28;20030;-77
2022/10/20 04:03:02;;;;;;;13.43;6.70;;;;;;;-148.88;99.52;76797.03;4976857;28;20026;-78
2022/10/20 04:05:27;;;;;;;12.23;6.70;;;;;;;-148.88;99.57;76803.13;4975591;28;20512;-77
2022/10/20 04:07:52;;;;;;;12.30;7.22;;;;;;;-148.88;99.76;76807.19;4975574;28;20452;-76
2022/10/20 04:10:18;;;;;;;10.40;6.32;;;;;;;-148.88;99.66;76805.16;4976916;28;20037;-76
2022/10/20 04:12:43;;;;;;;11.60;6.97;;;;;;;-148.88;99.85;76805.16;4975347;28;20019;-77
2022/10/20 04:15:09;;;;;;;13.07;7.10;;;;;;;-148.88;100.00;76801.09;4976556;28;20027;-77
2022/10/20 04:17:35;;;;;;;11.50;6.80;;;;;;;-148.88;100.00;76803.13;4976493;28;20043;-77
2022/10/20 04:20:01;;;;;;;14.13;6.97;;;;;;;-148.88;99.83;76788.91;4976384;28;20106;-76
2022/10/20 04:22:26;;;;;;;12.90;6.22;;;;;;;-148.88;100.00;76782.81;4976493;28;20102;-77
2022/10/20 04:24:52;;;;;;;10.73;6.68;;;;;;;-148.88;100.00;76776.72;4976369;28;20030;-77
2022/10/20 04:27:17;;;;;;;10.98;5.97;;;;;;;-148.88;99.91;76778.75;4976380;28;20023;-77
2022/10/20 04:29:42;;;;;;;13.73;6.40;;;;;;;-148.88;100.00;76776.72;4975150;28;20409;-78
2022/10/20 04:32:08;;;;;;;14.73;6.97;;;;;;;-148.88;100.00;76784.84;4976426;28;20081;-77
2022/10/20 04:34:33;;;;;;;12.32;6.45;;;;;;;-148.88;100.00;76792.97;4976282;28;20058;-78
2022/10/20 04:36:59;;;;;;;10.45;5.93;;;;;;;-148.88;100.00;76790.94;4977188;28;20034;-78
2022/10/20 04:39:24;;;;;;;10.98;6.30;;;;;;;-148.88;100.00;76784.84;4978275;28;20041;-79
2022/10/20 04:41:50;;;;;;;11.45;6.57;;;;;;;-148.88;100.00;76780.78;4976014;28;20030;-78
2022/10/20 04:44:16;;;;;;;11.07;7.07;;;;;;;-148.88;100.00;76778.75;4978253;28;20160;-78
2022/10/20 04:46:41;;;;;;;14.18;7.22;;;;;;;-148.88;100.00;76768.59;4979374;28;20026;-77
2022/10/20 04:49:06;;;;;;;11.77;6.50;;;;;;;-148.88;100.00;76766.56;4981597;28;20035;-78
2022/10/20 04:51:32;;;;;;;10.48;6.15;;;;;;;-148.88;100.00;76760.44;4979448;28;20045;-78
2022/10/20 04:53:57;;;;;;;14.90;6.57;;;;;;;-148.88;100.00;76764.53;4979577;28;20110;-78
2022/10/20 04:56:22;;;;;;;11.60;6.57;;;;;;;-148.88;100.00;76756.41;4978256;28;20026;-78
2022/10/20 04:58:55;;;;;;;13.70;7.47;;;;;;;-148.88;100.00;76760.44;4977358;28;20136;-79
2022/10/20 05:01:23;;;;;;;15.02;7.05;;;;;;;-148.88;100.00;76744.19;4977679;28;20113;-78
2022/10/20 05:03:49;;;;;;;12.20;6.18;;;;;;;-148.88;100.00;76742.16;4977392;28;20022;-78
2022/10/20 05:06:24;;;;;;;13.80;7.40;;;;;;;-148.88;100.00;76744.19;4977704;28;20110;-78
2022/10/20 05:08:54;;;;;;;12.40;6.43;;;;;;;-148.88;100.00;76727.94;4976971;28;20105;-78
2022/10/20 05:11:21;;;;;;;11.48;6.22;;;;;;;-148.88;100.00;76715.75;4975929;28;20027;-78
2022/10/20 05:13:47;;;;;;;13.23;6.15;;;;;;;-148.88;100.00;76707.63;4974812;28;20410;-78
2022/10/20 05:16:12;;;;;;;12.48;6.78;;;;;;;-148.88;100.00;76691.38;4975875;28;20501;-78
2022/10/20 05:18:38;;;;;;;11.32;6.05;;;;;;;-148.88;99.81;76687.31;4975847;28;20027;-78
2022/10/20 05:21:09;;;;;;;9.82;5.97;;;;;;;-148.88;99.43;76683.25;4975413;28;20027;-78
2022/10/20 05:23:35;;;;;;;11.23;6.18;;;;;;;-148.88;99.29;76687.31;4974888;28;20034;-78
2022/10/20 05:26:04;;;;;;;17.83;6.47;;;;;;;-148.88;99.59;76683.25;4974441;28;20097;-78
2022/10/20 05:28:30;;;;;;;19.33;7.25;;;;;;;-148.88;99.44;76671.06;4976130;28;20031;-78
2022/10/20 05:30:59;;;;;;;13.73;5.90;;;;;;;-148.88;99.27;76675.13;4975281;28;20033;-78
2022/10/20 05:33:24;;;;;;;12.30;6.22;;;;;;;-148.88;99.13;76677.16;4976256;28;20031;-78
2022/10/20 05:35:49;;;;;;;12.80;6.40;;;;;;;-148.88;98.75;76679.19;4975936;28;20031;-78
2022/10/20 05:38:15;;;;;;;11.60;5.82;;;;;;;-148.88;98.92;76679.19;4974491;28;20393;-78
2022/10/20 05:40:40;;;;;;;15.15;6.15;;;;;;;-148.88;98.79;76679.19;4975630;28;20102;-78
2022/10/20 05:43:05;;;;;;;9.98;5.45;;;;;;;-148.88;98.53;76679.19;4975777;28;20421;-78
2022/10/20 05:45:30;;;;;;;11.10;5.93;;;;;;;-148.88;98.33;76681.22;4974155;28;20102;-78
2022/10/20 05:47:56;;;;;;;9.27;5.50;;;;;;;-148.88;98.61;76664.97;4974341;28;20031;-78
2022/10/20 05:50:21;;;;;;;10.43;6.00;;;;;;;-148.88;98.00;76671.06;4975390;28;20065;-78
2022/10/20 05:52:46;;;;;;;11.80;5.97;;;;;;;-148.88;97.69;76664.97;4975406;28;20030;-78
2022/10/20 05:55:12;;;;;;;11.90;5.82;;;;;;;-148.88;97.85;76654.81;4973869;28;20023;-78
2022/10/20 05:57:38;;;;;;;14.40;5.85;;;;;;;-148.88;97.73;76654.81;4975383;28;20037;-78
2022/10/20 06:00:04;;;;;;;8.40;5.25;;;;;;;-148.88;97.54;76646.69;4976014;28;20027;-78
2022/10/20 06:02:29;;;;;;;9.20;5.63;;;;;;;-148.88;97.44;76638.56;4976227;28;20445;-78
2022/10/20 06:04:54;;;;;;;10.48;5.30;;;;;;;-148.88;97.27;76630.44;4976144;28;20022;-78
2022/10/20 06:07:19;;;;;;;9.35;5.78;;;;;;;-148.88;97.10;76624.34;4975487;28;20027;-78
2022/10/20 06:09:45;;;;;;;10.95;5.63;;;;;;;-148.88;96.91;76618.25;4974403;28;20502;-78
2022/10/20 06:12:10;;;;;;;10.98;5.50;;;;;;;-148.88;97.00;76620.28;4974453;28;20030;-78
2022/10/20 06:14:35;;;;;;;10.93;5.57;;;;;;;-148.88;97.01;76614.19;4974454;28;20022;-78
2022/10/20 06:17:01;;;;;;;12.52;5.40;;;;;;;-148.88;97.03;76610.13;4975470;28;20481;-78
2022/10/20 06:19:26;;;;;;;10.02;5.60;;;;;;;-148.88;97.05;76614.19;4975695;28;20101;-78
2022/10/20 06:21:52;;;;;;;11.35;5.72;;;;;;;-148.88;96.91;76606.06;4975322;28;20473;-78
2022/10/20 06:24:18;;;;;;;10.20;5.43;;;;;;;-148.88;96.98;76618.25;4975294;28;20094;-78
2022/10/20 06:26:44;;;;;;;10.98;5.75;;;;;;;-148.88;96.70;76614.19;4974060;28;20110;-79
2022/10/20 06:29:13;;;;;;;10.35;5.60;;;;;;;-148.88;96.74;76606.06;4975246;28;20030;-78
2022/10/20 06:31:40;;;;;;;10.23;5.35;;;;;;;-148.88;96.80;76601.97;4974954;28;20053;-78
2022/10/20 06:34:08;;;;;;;10.73;5.18;;;;;;;-148.88;96.42;76589.78;4974914;28;20027;-78
2022/10/20 06:36:37;;;;;;;9.90;5.35;;;;;;;-148.88;96.46;76597.91;4973884;28;20085;-78
2022/10/20 06:39:04;;;;;;;12.55;5.88;;;;;;;-148.88;96.42;76593.84;4976597;28;20031;-78
2022/10/20 06:41:31;;;;;;;11.65;5.40;;;;;;;-148.88;96.28;76581.66;4974430;28;20030;-78
2022/10/20 06:43:59;;;;;;;9.32;5.85;;;;;;;-148.88;96.00;76573.53;4975702;28;20050;-79
2022/10/20 06:46:27;;;;;;;12.60;5.22;;;;;;;-148.88;95.52;76569.47;4974038;28;20081;-78
2022/10/20 06:48:52;;;;;;;8.88;5.30;;;;;;;-148.88;95.49;76563.38;4975043;28;20027;-78
2022/10/20 06:51:20;;;;;;;8.70;5.15;;;;;;;-148.88;95.65;76553.22;4975210;28;20509;-78
2022/10/20 06:53:46;;;;;;;9.10;5.18;;;;;;;-148.88;95.60;76551.19;4975059;28;20030;-79
2022/10/20 06:56:18;;;;;;;12.63;5.45;;;;;;;-148.88;95.64;76549.16;4975535;28;20477;-79
2022/10/20 06:58:45;;;;;;;9.65;4.65;;;;;;;-148.88;95.34;76545.09;4973874;28;20054;-78
2022/10/20 07:01:13;;;;;;;8.57;5.05;;;;;;;-148.88;94.84;76528.84;4974868;28;20029;-78
2022/10/20 07:03:39;;;;;;;10.30;5.82;;;;;;;-148.88;94.68;76528.84;4975097;28;20118;-79
2022/10/20 07:06:07;;;;;;;9.05;5.07;;;;;;;-148.88;94.34;76520.72;4975238;28;20027;-78
2022/10/20 07:08:34;;;;;;;10.25;4.97;;;;;;;-148.88;94.34;76516.66;4975198;28;20033;-78
2022/10/20 07:11:06;;;;;;;9.05;5.20;;;;;;;-148.88;94.53;76500.41;4973606;28;20034;-78
2022/10/20 07:13:33;;;;;;;10.15;5.22;;;;;;;-148.88;94.56;76504.47;4974995;28;20461;-78
2022/10/20 07:15:58;;;;;;;10.75;5.68;;;;;;;-148.88;94.31;76492.28;4978818;28;20042;-78
2022/10/20 07:18:26;;;;;;;12.18;5.68;;;;;;;-148.88;94.08;76500.41;4981188;28;20393;-78
2022/10/20 07:20:55;;;;;;;8.75;5.47;;;;;;;-148.88;93.99;76496.34;4977919;28;20058;-78
2022/10/20 07:23:21;;;;;;;12.35;5.80;;;;;;;-148.88;93.82;76496.34;4977798;28;20027;-78
2022/10/20 07:25:46;;;;;;;10.10;5.68;;;;;;;-148.88;94.00;76490.25;4977916;28;20453;-78
2022/10/20 07:28:11;;;;;;;10.43;5.40;;;;;;;-148.88;93.87;76480.09;4979191;28;20030;-78
2022/10/20 07:30:40;;;;;;;11.02;6.07;;;;;;;-148.88;93.91;76463.84;4978544;28;20026;-78
2022/10/20 07:33:07;;;;;;;11.68;5.82;;;;;;;-148.88;94.16;76455.72;4977842;28;20034;-79
2022/10/20 07:35:33;;;;;;;10.20;5.47;;;;;;;-148.88;92.78;76439.47;4977330;28;20015;-78
2022/10/20 07:37:59;;;;;;;11.50;5.32;;;;;;;-148.88;92.98;76439.47;4977258;28;20037;-78
2022/10/20 07:40:24;;;;;;;11.38;5.80;;;;;;;-148.88;93.17;76435.41;4978371;28;20078;-78
2022/10/20 07:42:49;;;;;;;11.73;8.38;;;;;;;-148.88;93.30;76425.25;4978362;28;20025;-78
2022/10/20 07:45:15;;;;;;;9.55;5.53;;;;;;;-148.88;92.80;76419.16;4978311;28;20027;-78
2022/10/20 07:47:40;;;;;;;11.55;5.65;;;;;;;-148.88;92.99;76413.03;4978627;28;20114;-79
2022/10/20 07:50:06;;;;;;;8.98;5.88;;;;;;;-148.88;92.83;76413.03;4977334;28;20050;-78
2022/10/20 07:52:32;;;;;;;11.00;6.07;;;;;;;-148.88;92.68;76411.00;4978729;28;20100;-78
2022/10/20 07:54:58;;;;;;;10.23;7.85;;;;;;;-148.88;92.92;76404.91;4979511;28;20126;-78
2022/10/20 07:57:24;;;;;;;11.00;5.82;;;;;;;-148.88;91.96;76400.84;4978776;28;20037;-78
2022/10/20 07:59:49;;;;;;;10.68;5.68;;;;;;;-148.88;92.29;76382.56;4978684;28;20026;-78
2022/10/20 08:02:16;;;;;;;9.85;5.63;;;;;;;-148.88;92.56;76382.56;4978242;28;20027;-78
2022/10/20 08:04:43;;;;;;;9.95;5.45;;;;;;;-148.88;92.27;76366.31;4977090;28;20185;-78
2022/10/20 08:07:09;;;;;;;12.13;7.93;;;;;;;-148.88;91.99;76352.09;4977022;28;20030;-78
2022/10/20 08:09:36;;;;;;;9.65;7.75;;;;;;;-148.88;92.16;76346.00;4978529;28;20069;-78
2022/10/20 08:12:02;;;;;;;8.85;5.40;;;;;;;-148.88;92.52;76350.06;4977906;28;20030;-78
2022/10/20 08:14:30;;;;;;;10.43;7.70;;;;;;;-148.88;92.02;76339.91;4977897;28;20109;-78
2022/10/20 08:16:56;;;;;;;10.23;5.65;;;;;;;-148.88;92.56;76337.88;4978555;28;20037;-78
2022/10/20 08:19:21;;;;;;;10.98;6.15;;;;;;;-148.88;91.79;76325.69;4977113;28;20027;-79
2022/10/20 08:21:47;;;;;;;10.52;5.68;;;;;;;-148.88;92.09;76327.72;4976689;28;20031;-79
2022/10/20 08:24:12;;;;;;;10.00;8.27;;;;;;;-148.88;91.71;76323.66;4976657;28;20030;-78
2022/10/20 08:26:37;;;;;;;12.57;6.43;;;;;;;-148.88;91.51;76299.28;4977352;28;20390;-78
2022/10/20 08:29:03;;;;;;;12.88;5.50;;;;;;;-148.88;91.96;76295.22;4976884;28;20026;-77
2022/10/20 08:31:28;;;;;;;10.50;6.22;;;;;;;-148.88;91.70;76285.06;4980096;28;20031;-78
2022/10/20 08:33:53;;;;;;;12.20;6.45;;;;;;;-148.88;91.45;76285.06;4979945;28;20048;-78
2022/10/20 08:36:19;;;;;;;10.80;5.53;;;;;;;-148.88;92.12;76268.81;4979279;28;20406;-78
2022/10/20 08:38:44;;;;;;;12.45;6.13;;;;;;;-148.88;92.41;76264.75;4977928;28;20050;-78
2022/10/20 08:41:37;;;;;;;12.50;8.48;;;;;;;-148.88;91.73;76248.50;4978069;28;20034;-78
2022/10/20 08:44:05;;;;;;;12.63;5.82;;;;;;;-148.88;91.89;76232.25;4975348;28;20110;-78
2022/10/20 08:46:33;;;;;;;10.93;9.10;;;;;;;-148.88;91.69;76222.09;4976726;28;20049;-79
2022/10/20 08:49:00;;;;;;;11.52;9.10;;;;;;;-148.88;92.17;76213.97;4977830;28;20118;-78
2022/10/20 08:51:30;;;;;;;12.93;8.88;;;;;;;-148.88;91.56;76195.69;4976279;28;20027;-78
2022/10/20 08:53:58;;;;;;;10.80;6.20;;;;;;;-148.88;91.05;76191.63;4977650;28;20401;-78
2022/10/20 08:56:28;;;;;;;10.65;6.40;;;;;;;-148.88;91.02;76187.56;4978240;28;20375;-78
2022/10/20 08:58:54;;;;;;;10.27;8.70;;;;;;;-148.88;91.13;76171.31;4977848;28;20027;-79
2022/10/20 09:01:22;;;;;;;11.30;8.57;;;;;;;-148.88;90.73;76161.16;4976378;28;20069;-79
2022/10/20 09:03:54;;;;;;;11.60;8.60;;;;;;;-148.88;91.10;76142.88;4976329;28;20181;-78
2022/10/20 09:06:19;;;;;;;8.85;5.90;;;;;;;-148.88;90.45;76122.56;4977875;28;20022;-78
2022/10/20 09:08:46;;;;;;;10.82;8.57;;;;;;;-148.88;90.05;76112.41;4979095;28;20031;-78
2022/10/20 09:11:19;;;;;;;12.30;9.35;;;;;;;-148.88;89.89;76090.03;4978397;28;20109;-78
2022/10/20 09:13:44;;;;;;;10.25;6.40;;;;;;;-148.88;90.04;76085.97;4979272;28;20383;-77
2022/10/20 09:16:36;;;;;;;13.90;9.38;;;;;;;-148.88;89.29;76073.78;4977264;28;20486;-78
2022/10/20 09:19:04;;;;;;;11.95;9.23;;;;;;;-148.88;89.31;76069.72;4975463;28;20027;-78
2022/10/20 09:21:32;;;;;;;9.70;8.52;;;;;;;-148.88;89.28;76053.47;4977166;28;20073;-78
2022/10/20 09:24:02;;;;;;;12.35;8.52;;;;;;;-148.88;88.83;76039.25;4977238;28;20023;-78
2022/10/20 09:26:43;;;;;;;12.43;9.07;;;;;;;-148.88;88.53;76020.97;4975886;28;20026;-78
2022/10/20 09:29:20;;;;;;;9.75;8.55;;;;;;;-148.88;88.65;75996.59;4976834;28;20023;-78
2022/10/20 09:31:52;;;;;;;11.98;8.43;;;;;;;-148.88;88.25;75990.50;4975488;28;20441;-78
2022/10/20 09:34:27;;;;;;;11.82;9.05;;;;;;;-148.88;86.64;75988.47;4976473;28;20493;-78
2022/10/20 09:36:56;;;;;;;9.88;8.73;;;;;;;-148.88;87.45;75982.38;4976779;28;20035;-78
2022/10/20 09:39:25;;;;;;;11.75;8.40;;;;;;;-148.88;87.53;75968.16;4976303;28;20501;-78
2022/10/20 09:42:02;;;;;;;11.60;8.68;;;;;;;-148.88;87.50;75972.22;4975340;28;20034;-78
2022/10/20 09:44:31;;;;;;;11.75;9.13;;;;;;;-148.88;87.84;75947.84;4977186;28;20026;-78
2022/10/20 09:46:57;;;;;;;11.70;8.63;;;;;;;-148.88;87.10;75931.59;4977368;28;20057;-78
2022/10/20 09:49:35;;;;;;;11.00;8.50;;;;;;;-148.88;86.08;75911.28;4979833;28;20445;-78
2022/10/20 09:52:03;;;;;;;11.45;8.18;;;;;;;-148.88;85.95;75903.16;4977280;28;20054;-78
2022/10/20 09:54:29;;;;;;;10.00;7.95;;;;;;;-148.88;85.59;75886.91;4981753;23;20045;-78
2022/10/20 09:57:04;;;;;;;11.02;8.55;;;;;;;-148.88;85.42;75874.72;4957468;28;20055;-78
2022/10/20 09:59:34;;;;;;;9.52;7.93;;;;;;;-148.88;85.77;75854.41;4957964;28;20031;-79
2022/10/20 10:02:12;;;;;;;11.77;8.88;;;;;;;-148.88;85.54;75809.72;4958434;28;20062;-79
2022/10/20 10:04:39;;;;;;;11.82;8.50;;;;;;;-148.88;83.53;75791.44;4958675;28;20034;-79
2022/10/20 10:09:59;;;;;;;12.95;7.85;;;;;;;-148.88;82.39;75809.72;5030418;28;20057;-76
2022/10/20 10:12:27;;;;;;;10.25;7.25;;;;;;;-148.88;82.03;75801.59;5033685;28;20025;-76
2022/10/20 10:14:53;;;;;;;11.52;7.95;;;;;;;-148.88;81.27;75793.47;5032863;28;20037;-75
2022/10/20 10:17:50;;;;;;;10.05;7.82;;;;;;;-148.88;80.82;75797.53;5031613;28;20021;-76
2022/10/20 10:20:15;;;;;;;10.35;8.15;;;;;;;-148.88;81.01;75771.13;5032865;28;20515;-76
2022/10/20 10:22:42;;;;;;;8.77;7.88;;;;;;;-148.88;81.28;75748.78;5033395;28;20071;-76
2022/10/20 10:25:20;;;;;;;11.07;7.32;;;;;;;-148.88;80.29;75720.34;5032763;28;20476;-76
2022/10/20 10:28:03;;;;;;;9.35;7.25;;;;;;;-148.88;80.55;75683.78;5032927;28;20057;-76
2022/10/20 10:30:37;;;;;;;10.43;7.53;;;;;;;-148.88;79.39;75659.41;5031262;28;20029;-76
2022/10/20 10:33:31;;;;;;;10.68;7.55;;;;;;;-148.88;78.95;75622.84;5031293;28;20049;-75
2022/10/20 10:36:00;;;;;;;9.23;7.00;;;;;;;-148.88;77.67;75590.34;5029108;28;20041;-75
2022/10/20 10:38:25;;;;;;;9.68;7.35;;;;;;;-148.88;75.26;75614.72;5032395;28;20444;-76
2022/10/20 10:41:20;;;;;;;7.97;7.00;;;;;;;-148.88;75.92;75602.53;5032377;28;20052;-76
2022/10/20 10:44:09;;;;;;;8.13;6.40;;;;;;;-148.88;77.11;75561.94;5022183;28;20034;-76
2022/10/20 10:46:39;;;;;;;9.00;7.13;;;;;;;-148.88;76.18;75521.31;5032659;28;20029;-75
2022/10/20 10:49:34;;;;;;;7.97;6.68;;;;;;;-148.88;73.79;75513.19;5030931;28;20171;-76
2022/10/20 10:52:34;;;;;;;8.98;6.80;;;;;;;-148.88;73.47;75545.69;5032317;28;20541;-75
2022/10/20 10:55:16;;;;;;;9.95;6.85;;;;;;;-148.88;74.66;75582.22;5015221;28;20042;-76
2022/10/20 10:57:53;;;;;;;10.15;6.47;;;;;;;-148.88;75.78;75572.09;5032453;28;20052;-76
2022/10/20 11:00:42;;;;;;;8.95;6.88;;;;;;;-148.88;77.55;75578.19;5032229;28;20033;-76
2022/10/20 11:03:37;;;;;;;7.22;6.32;;;;;;;-148.88;76.97;75590.34;5032363;28;20380;-76
2022/10/20 11:06:23;;;;;;;12.40;6.40;;;;;;;-148.88;77.09;75606.59;5031997;28;20025;-76
2022/10/20 11:09:13;;;;;;;7.38;6.43;;;;;;;-148.88;78.50;75610.66;5032125;28;20451;-76
2022/10/20 11:12:10;;;;;;;8.38;6.70;;;;;;;-148.88;78.04;75592.38;5032435;28;20488;-76
2022/10/20 11:14:53;;;;;;;9.43;6.65;;;;;;;-148.88;78.57;75586.31;5032382;28;20075;-75
2022/10/20 11:17:24;;;;;;;10.95;6.53;;;;;;;-148.88;78.15;75559.91;5032451;28;20025;-75
2022/10/20 11:20:02;;;;;;;8.63;6.15;;;;;;;-148.88;77.87;75541.63;5032324;28;20052;-75
2022/10/20 11:22:50;;;;;;;10.30;6.18;;;;;;;-148.88;77.39;75541.63;5031968;28;20053;-76